Tarawa, Kiribati
Current Conditions -  °F | °C
As of 9:00 PM on Thursday 18 Dec 2014 (Local Time) from NGTT Reporting Station
Few Clouds Few Clouds  
Wind Chill: 84°   Ceiling: Unl
Heat Index: 94°   Visibility: 6mi
Dew Point: 77°   Wind: 5mph
Humidity: 79%   Direction: 120°ESE
Pressure: 29.8"   Gusts: NA
Location:  1.33°N, 172.98°E
Report Text: NGTT 180900Z 12004KT 9999 FEW020 29/25 Q1009
Loading
Personal Weather Stations






























Interactive Weather Map New forecast layout! Learn more

10-Day Weather Forecast

Advertisements
Track Severe Weather on mobile